Time;durP1;ratioP1;P1;durP2;ratioP2;P2;SDS_P1;SDS_P2;PMS_P1;PMS_P2;Temp;Humidity;BMP_temperature;BMP_pressure;BME280_temperature;BME280_humidity;BME280_pressure;Samples;Min_cycle;Max_cycle;Signal;HPM_P1;HPM_P2
2022/09/17 00:01:41;;;;;;;;;;;;;;;9.01;94.60;97433.38;105367;1280;139203;-71
2022/09/17 00:04:09;;;;;;;20.00;14.20;;;;;;;8.99;94.77;97432.11;105497;1280;22551;-72
2022/09/17 00:06:39;;;;;;;22.30;15.90;;;;;;;8.98;94.75;97425.74;105655;1280;25239;-72
2022/09/17 00:09:09;;;;;;;25.20;17.10;;;;;;;8.99;95.06;97425.86;105306;1280;139012;-72
2022/09/17 00:11:48;;;;;;;25.90;16.50;;;;;;;9.01;95.24;97426.26;105418;1280;25456;-71
2022/09/17 00:14:16;;;;;;;24.50;16.60;;;;;;;9.01;95.29;97430.55;105284;1280;139468;-71
2022/09/17 00:16:46;;;;;;;23.60;16.80;;;;;;;9.01;95.21;97431.10;105376;1281;22620;-71
2022/09/17 00:19:21;;;;;;;24.20;16.60;;;;;;;9.02;95.27;97434.58;105436;1280;22545;-72
2022/09/17 00:21:49;;;;;;;24.20;16.90;;;;;;;9.02;95.21;97433.48;105470;1280;22555;-71
2022/09/17 00:24:19;;;;;;;26.70;15.80;;;;;;;9.02;95.07;97431.70;105378;1280;24387;-71
2022/09/17 00:26:49;;;;;;;22.50;15.90;;;;;;;9.01;95.28;97425.66;105335;1280;139080;-71
2022/09/17 00:29:18;;;;;;;19.50;14.50;;;;;;;9.01;95.09;97420.99;105548;1280;24640;-71
2022/09/17 00:31:47;;;;;;;21.60;15.00;;;;;;;8.99;94.97;97417.48;105328;1280;139135;-72
2022/09/17 00:34:16;;;;;;;22.30;15.00;;;;;;;8.97;94.82;97420.90;105359;1281;22605;-72
2022/09/17 00:36:45;;;;;;;22.20;14.90;;;;;;;8.96;94.96;97425.45;105464;1280;24190;-72
2022/09/17 00:39:17;;;;;;;23.00;15.30;;;;;;;8.94;95.06;97425.92;105260;1280;138531;-71
2022/09/17 00:41:45;;;;;;;22.10;15.60;;;;;;;8.92;94.98;97427.88;104278;1281;1507543;-72
2022/09/17 00:44:36;;;;;;;24.80;16.20;;;;;;;8.90;95.13;97426.71;105275;1280;139000;-71
2022/09/17 00:47:26;;;;;;;21.70;15.40;;;;;;;8.90;95.24;97429.00;105368;1281;25365;-72
2022/09/17 00:50:17;;;;;;;23.50;17.20;;;;;;;8.91;95.70;97426.18;105290;1280;138762;-72
2022/09/17 00:52:52;;;;;;;27.00;18.10;;;;;;;8.92;95.77;97425.11;105413;1281;24350;-72
2022/09/17 00:55:27;;;;;;;25.90;16.80;;;;;;;8.93;95.79;97421.54;105291;1280;139223;-71
2022/09/17 00:58:23;;;;;;;26.30;17.40;;;;;;;8.90;95.73;97415.42;105542;1281;22555;-72
2022/09/17 01:00:52;;;;;;;23.30;17.00;;;;;;;8.89;95.87;97416.02;105401;1281;24072;-72
2022/09/17 01:03:18;;;;;;;24.80;16.60;;;;;;;8.88;95.89;97419.33;105276;1281;138738;-72
2022/09/17 01:06:01;;;;;;;24.20;16.70;;;;;;;8.88;95.97;97418.17;105337;1281;24311;-71
2022/09/17 01:08:56;;;;;;;23.10;16.80;;;;;;;8.87;95.77;97419.09;105309;1281;138790;-71
2022/09/17 01:11:43;;;;;;;24.60;17.10;;;;;;;8.85;95.86;97417.58;105425;1280;24326;-71
2022/09/17 01:14:32;;;;;;;23.80;15.90;;;;;;;8.83;95.74;97414.34;105340;1281;138957;-73
2022/09/17 01:17:33;;;;;;;23.40;16.30;;;;;;;8.82;95.65;97416.77;105389;1280;23978;-72
2022/09/17 01:20:34;;;;;;;23.10;16.30;;;;;;;8.78;95.33;97417.39;105361;1281;138739;-72
2022/09/17 01:23:26;;;;;;;24.30;16.00;;;;;;;8.74;94.95;97416.92;104661;1289;25340;-71
2022/09/17 01:26:04;;;;;;;25.30;16.60;;;;;;;8.70;95.01;97416.63;104542;1289;138924;-72
2022/09/17 01:28:50;;;;;;;23.50;16.20;;;;;;;8.69;95.11;97416.73;104800;1289;25316;-71
2022/09/17 01:31:35;;;;;;;24.00;16.30;;;;;;;8.67;95.12;97417.85;104539;1289;138811;-72
2022/09/17 01:34:11;;;;;;;24.30;16.80;;;;;;;8.65;95.02;97417.02;104579;1289;25482;-72
2022/09/17 01:36:52;;;;;;;24.70;17.20;;;;;;;8.64;95.22;97415.74;104773;1289;22567;-73
2022/09/17 01:39:56;;;;;;;22.40;16.70;;;;;;;8.64;95.52;97414.56;104509;1289;139086;-71
2022/09/17 01:42:32;;;;;;;25.80;18.10;;;;;;;8.63;95.63;97415.09;104615;1287;22549;-72
2022/09/17 01:45:26;;;;;;;24.40;17.10;;;;;;;8.62;95.79;97419.20;104528;1287;138919;-71
2022/09/17 01:48:02;;;;;;;22.30;16.50;;;;;;;8.61;95.71;97419.80;104695;1289;24491;-72
2022/09/17 01:50:49;;;;;;;23.30;16.80;;;;;;;8.59;95.78;97427.39;104487;1287;138582;-72
2022/09/17 01:53:20;;;;;;;25.50;17.50;;;;;;;8.58;95.53;97429.16;104679;1287;25531;-71
2022/09/17 01:55:52;;;;;;;25.30;18.00;;;;;;;8.56;95.79;97425.99;104465;1289;138828;-72
2022/09/17 01:58:28;;;;;;;26.70;17.10;;;;;;;8.54;95.88;97421.15;104620;1289;22720;-71
2022/09/17 02:01:01;;;;;;;28.10;17.30;;;;;;;8.54;95.96;97420.18;105213;1281;23982;-71
2022/09/17 02:03:40;;;;;;;24.90;15.90;;;;;;;8.53;96.01;97421.20;105308;1280;138692;-71
2022/09/17 02:06:14;;;;;;;22.80;16.20;;;;;;;8.53;96.12;97420.70;105372;1281;24310;-71
2022/09/17 02:08:51;;;;;;;22.60;16.30;;;;;;;8.52;96.03;97420.42;105262;1281;138798;-71
2022/09/17 02:11:18;;;;;;;21.80;16.40;;;;;;;8.50;95.70;97419.60;105384;1281;24256;-72
2022/09/17 02:13:51;;;;;;;20.00;16.00;;;;;;;8.49;95.84;97420.73;105320;1281;138873;-72
2022/09/17 02:16:27;;;;;;;22.80;14.00;;;;;;;8.48;95.89;97424.19;105363;1281;22724;-72
2022/09/17 02:19:19;;;;;;;20.70;13.90;;;;;;;8.48;95.97;97422.77;105387;1281;23052;-71
2022/09/17 02:22:22;;;;;;;17.10;13.50;;;;;;;8.47;96.06;97429.77;105399;1281;30170;-71
2022/09/17 02:25:15;;;;;;;22.20;14.90;;;;;;;8.47;95.90;97433.24;105255;1281;23938;-71
2022/09/17 02:28:02;;;;;;;19.90;14.00;;;;;;;8.45;95.38;97431.16;105280;1281;22667;-72
2022/09/17 02:30:29;;;;;;;23.70;15.30;;;;;;;8.40;95.22;97428.36;105461;1281;23974;-73
2022/09/17 02:32:57;;;;;;;21.50;15.30;;;;;;;8.36;95.32;97434.09;105342;1281;138705;-70
2022/09/17 02:35:23;;;;;;;21.30;16.40;;;;;;;8.34;95.51;97439.98;105405;1281;22789;-72
2022/09/17 02:37:52;;;;;;;21.20;16.50;;;;;;;8.32;95.37;97447.23;105266;1280;139336;-73
2022/09/17 02:40:22;;;;;;;21.10;15.40;;;;;;;8.29;95.68;97443.39;105402;1281;26514;-71
2022/09/17 02:43:17;;;;;;;18.10;13.90;;;;;;;8.28;95.57;97447.06;105399;1281;22540;-72
2022/09/17 02:45:53;;;;;;;18.10;13.50;;;;;;;8.25;95.67;97443.89;105458;1281;24178;-72
2022/09/17 02:48:20;;;;;;;17.40;13.00;;;;;;;8.23;95.51;97436.11;105375;1280;22905;-71
2022/09/17 02:51:05;;;;;;;18.50;12.80;;;;;;;8.20;95.79;97430.61;105280;1281;138751;-71
2022/09/17 02:53:47;;;;;;;17.50;11.90;;;;;;;8.16;95.68;97429.76;105370;1280;22660;-71
2022/09/17 02:56:14;;;;;;;13.80;10.20;;;;;;;8.12;95.66;97421.80;105262;1281;139034;-71
2022/09/17 02:58:46;;;;;;;15.60;9.90;;;;;;;8.09;95.89;97420.13;105368;1281;22709;-72
2022/09/17 03:01:45;;;;;;;14.50;11.00;;;;;;;8.07;96.06;97419.18;105355;1280;24088;-71
2022/09/17 03:04:16;;;;;;;14.00;10.10;;;;;;;8.08;96.60;97417.67;105397;1281;25339;-71
2022/09/17 03:06:46;;;;;;;14.70;11.00;;;;;;;8.09;96.62;97414.17;105381;1280;22879;-72
2022/09/17 03:09:14;;;;;;;12.00;9.20;;;;;;;8.10;96.66;97412.34;105295;1281;138764;-72
2022/09/17 03:11:41;;;;;;;16.40;10.50;;;;;;;8.12;96.95;97410.73;105395;1281;22549;-71
2022/09/17 03:14:08;;;;;;;12.70;9.00;;;;;;;8.14;96.69;97409.92;105345;1281;138570;-71
2022/09/17 03:16:35;;;;;;;15.30;10.60;;;;;;;8.15;97.03;97405.39;105380;1281;25373;-71
2022/09/17 03:19:03;;;;;;;13.50;10.30;;;;;;;8.17;97.08;97398.95;105404;1281;25373;-72
2022/09/17 03:21:30;;;;;;;12.70;9.90;;;;;;;8.21;97.26;97396.75;105293;1280;139051;-72
2022/09/17 03:23:59;;;;;;;14.50;10.30;;;;;;;8.24;97.27;97399.66;105514;1281;24414;-71
2022/09/17 03:26:26;;;;;;;15.70;9.10;;;;;;;8.26;97.22;97388.08;105302;1280;138686;-71
2022/09/17 03:28:57;;;;;;;13.50;8.20;;;;;;;8.28;96.99;97393.85;105395;1280;22998;-71
2022/09/17 03:31:24;;;;;;;13.10;8.80;;;;;;;8.28;97.23;97391.09;105257;1280;138946;-72
2022/09/17 03:33:51;;;;;;;13.10;9.30;;;;;;;8.30;97.25;97386.00;105367;1281;25245;-71
2022/09/17 03:36:17;;;;;;;10.20;7.80;;;;;;;8.31;97.16;97382.60;105391;1281;22888;-71
2022/09/17 03:38:44;;;;;;;10.10;7.50;;;;;;;8.33;97.10;97379.42;105255;1281;138588;-71
2022/09/17 03:41:11;;;;;;;9.50;7.10;;;;;;;8.33;97.18;97378.13;105327;1280;22525;-71
2022/09/17 03:43:38;;;;;;;10.70;7.70;;;;;;;8.32;96.68;97387.22;105231;1281;138455;-71
2022/09/17 03:46:05;;;;;;;11.00;8.50;;;;;;;8.30;96.91;97382.21;105377;1281;25558;-71
2022/09/17 03:48:35;;;;;;;12.40;8.40;;;;;;;8.28;97.15;97381.11;105379;1280;23007;-71
2022/09/17 03:51:03;;;;;;;14.60;9.90;;;;;;;8.29;97.30;97380.90;105264;1280;138506;-71
2022/09/17 03:53:31;;;;;;;10.80;9.50;;;;;;;8.30;97.39;97373.64;105365;1280;24293;-71
2022/09/17 03:55:59;;;;;;;14.50;8.10;;;;;;;8.32;97.51;97370.36;105265;1280;138590;-71
2022/09/17 03:58:29;;;;;;;16.90;10.00;;;;;;;8.34;97.42;97367.11;105503;1280;22576;-71
2022/09/17 04:00:56;;;;;;;13.60;9.00;;;;;;;8.36;97.37;97365.02;105461;1280;22639;-72
2022/09/17 04:03:25;;;;;;;13.10;10.00;;;;;;;8.38;97.17;97368.88;105337;1280;138742;-71
2022/09/17 04:05:52;;;;;;;11.80;8.80;;;;;;;8.39;97.20;97365.58;105586;1280;22551;-71
2022/09/17 04:08:19;;;;;;;11.10;8.80;;;;;;;8.41;97.00;97366.08;105310;1280;138601;-71
2022/09/17 04:10:47;;;;;;;10.70;8.90;;;;;;;8.42;97.23;97368.45;105368;1280;25241;-71
2022/09/17 04:13:15;;;;;;;12.30;8.60;;;;;;;8.44;97.07;97369.73;105360;1280;25349;-72
2022/09/17 04:15:43;;;;;;;10.90;8.50;;;;;;;8.46;97.12;97371.32;105416;1281;22716;-72
2022/09/17 04:18:11;;;;;;;13.00;9.00;;;;;;;8.48;97.12;97371.17;105553;1280;22610;-71
2022/09/17 04:20:38;;;;;;;12.00;9.00;;;;;;;8.50;97.06;97364.70;105615;1280;138576;-71
2022/09/17 04:23:08;;;;;;;13.60;9.20;;;;;;;8.52;96.98;97364.27;105458;1280;24272;-71
2022/09/17 04:25:34;;;;;;;13.70;9.20;;;;;;;8.56;96.88;97362.50;105816;1280;25248;-71
2022/09/17 04:28:01;;;;;;;12.40;9.50;;;;;;;8.57;96.90;97355.83;106103;1280;24414;-72
2022/09/17 04:30:28;;;;;;;15.60;10.10;;;;;;;8.60;97.05;97353.52;105884;1280;25405;-71
2022/09/17 04:32:55;;;;;;;14.20;9.90;;;;;;;8.61;96.79;97359.61;105802;1280;138657;-71
2022/09/17 04:35:22;;;;;;;15.00;10.60;;;;;;;8.64;96.77;97363.45;106266;1280;22501;-71
2022/09/17 04:37:58;;;;;;;13.20;10.50;;;;;;;8.67;96.80;97363.30;105747;1280;138736;-71
2022/09/17 04:40:26;;;;;;;14.30;10.40;;;;;;;8.70;96.73;97370.59;106338;1280;24338;-71
2022/09/17 04:42:55;;;;;;;15.70;11.60;;;;;;;8.73;96.70;97377.39;106365;1280;24310;-71
2022/09/17 04:45:22;;;;;;;14.50;11.00;;;;;;;8.76;96.57;97376.98;106189;1280;138557;-71
2022/09/17 04:47:52;;;;;;;16.00;10.70;;;;;;;8.80;96.62;97382.02;106217;1279;22558;-71
2022/09/17 04:50:20;;;;;;;16.20;10.90;;;;;;;8.82;96.39;97385.28;106405;1280;138734;-71
2022/09/17 04:52:47;;;;;;;14.60;11.10;;;;;;;8.85;96.43;97387.37;106273;1280;22729;-71
2022/09/17 04:55:16;;;;;;;16.90;11.80;;;;;;;8.88;96.38;97386.30;105698;1280;22541;-72
2022/09/17 04:57:51;;;;;;;14.60;12.10;;;;;;;8.91;96.24;97377.52;106048;1280;138585;-71
2022/09/17 05:00:19;;;;;;;16.40;11.50;;;;;;;8.95;96.15;97379.89;106101;1280;22554;-71
2022/09/17 05:02:48;;;;;;;16.20;12.00;;;;;;;8.98;96.07;97378.92;105509;1280;138465;-71
2022/09/17 05:05:17;;;;;;;16.40;12.10;;;;;;;8.99;95.89;97379.10;105614;1280;22605;-71
2022/09/17 05:07:44;;;;;;;15.00;11.60;;;;;;;9.00;95.87;97372.92;105420;1280;138741;-71
2022/09/17 05:10:14;;;;;;;17.90;11.80;;;;;;;9.02;95.83;97366.79;105368;1280;22609;-71
2022/09/17 05:12:40;;;;;;;;;;;;;;;9.04;95.70;97367.15;105437;1280;22533;-71
2022/09/17 05:15:07;;;;;;;14.90;11.50;;;;;;;9.05;95.56;97364.97;105283;1280;124807;-71
2022/09/17 05:17:34;;;;;;;17.40;11.70;;;;;;;9.04;95.47;97362.20;105383;1280;25526;-71
2022/09/17 05:20:01;;;;;;;19.00;12.80;;;;;;;9.05;95.40;97359.38;105314;1280;138857;-73
2022/09/17 05:22:28;;;;;;;15.80;11.60;;;;;;;9.07;95.45;97362.32;105495;1280;22868;-72
2022/09/17 05:24:56;;;;;;;19.50;12.10;;;;;;;9.07;95.35;97362.10;105399;1280;22726;-72
2022/09/17 05:27:24;;;;;;;17.10;11.20;;;;;;;9.10;95.36;97364.39;105352;1280;138567;-71
2022/09/17 05:29:50;;;;;;;16.70;11.80;;;;;;;9.11;95.25;97369.90;105408;1280;22570;-71
2022/09/17 05:32:17;;;;;;;17.70;11.30;;;;;;;9.14;95.39;97368.38;105281;1280;138618;-71
2022/09/17 05:34:44;;;;;;;15.90;11.40;;;;;;;9.19;95.51;97366.15;105357;1280;22878;-72
2022/09/17 05:37:11;;;;;;;13.60;11.00;;;;;;;9.23;95.40;97363.77;105311;1281;24354;-71
2022/09/17 05:39:38;;;;;;;13.60;11.00;;;;;;;9.29;95.66;97361.41;105183;1281;138556;-71
2022/09/17 05:42:05;;;;;;;14.50;10.10;;;;;;;9.35;95.78;97357.37;105280;1281;22588;-71
2022/09/17 05:44:32;;;;;;;16.40;10.50;;;;;;;9.42;95.71;97351.58;105248;1280;138991;-71
2022/09/17 05:46:59;;;;;;;16.40;9.50;;;;;;;9.47;95.69;97347.04;105384;1280;22573;-71
2022/09/17 05:49:26;;;;;;;12.00;9.00;;;;;;;9.52;95.54;97346.96;105265;1280;138436;-71
2022/09/17 05:51:52;;;;;;;12.30;10.20;;;;;;;9.58;95.47;97348.33;105327;1280;22697;-71
2022/09/17 05:54:19;;;;;;;12.70;9.20;;;;;;;9.65;95.38;97360.92;105366;1280;25365;-72
2022/09/17 05:56:46;;;;;;;12.70;10.20;;;;;;;9.72;95.48;97380.14;105273;1280;140767;-71
2022/09/17 05:59:14;;;;;;;13.00;10.90;;;;;;;9.79;95.50;97374.56;105384;1280;25310;-71
2022/09/17 06:01:41;;;;;;;13.10;9.70;;;;;;;9.85;95.27;97378.95;105281;1280;138641;-71
2022/09/17 06:04:08;;;;;;;10.60;8.80;;;;;;;9.91;95.06;97376.23;105364;1280;24299;-72
2022/09/17 06:06:36;;;;;;;12.20;8.80;;;;;;;9.95;94.96;97370.15;105335;1280;22546;-71
2022/09/17 06:09:07;;;;;;;10.40;9.10;;;;;;;10.00;94.73;97372.13;105248;1280;138564;-71
2022/09/17 06:11:35;;;;;;;13.00;9.20;;;;;;;10.05;94.69;97371.22;105362;1279;24262;-71
2022/09/17 06:14:03;;;;;;;15.90;9.10;;;;;;;10.08;94.46;97375.90;104993;1280;139130;-72
2022/09/17 06:16:30;;;;;;;10.00;8.10;;;;;;;10.10;93.94;97379.54;105364;1280;25320;-71
2022/09/17 06:18:57;;;;;;;14.50;10.40;;;;;;;10.12;93.45;97370.41;105369;1280;25596;-72
2022/09/17 06:21:23;;;;;;;13.90;10.40;;;;;;;10.15;93.52;97363.29;105284;1280;138669;-71
2022/09/17 06:23:51;;;;;;;13.20;10.50;;;;;;;10.21;93.64;97363.68;105409;1280;23424;-72
2022/09/17 06:26:18;;;;;;;16.30;9.70;;;;;;;10.24;93.18;97358.02;105304;1279;139096;-71
2022/09/17 06:28:45;;;;;;;13.30;9.50;;;;;;;10.30;93.20;97360.92;105393;1280;22529;-72
2022/09/17 06:31:12;;;;;;;16.80;10.90;;;;;;;10.34;93.15;97352.95;105431;1280;25420;-72
2022/09/17 06:33:40;;;;;;;12.00;9.50;;;;;;;10.39;92.62;97354.21;105303;1280;138640;-72
2022/09/17 06:36:10;;;;;;;;;;;;;;;10.44;92.51;97355.75;105433;1280;25233;-71
2022/09/17 06:38:37;;;;;;;11.10;9.20;;;;;;;10.46;92.26;97362.61;105369;1279;124832;-71
2022/09/17 06:41:04;;;;;;;12.40;9.60;;;;;;;10.48;92.25;97366.41;105676;1280;22742;-71
2022/09/17 06:43:31;;;;;;;12.30;9.60;;;;;;;10.52;92.28;97371.48;105375;1280;139001;-71
2022/09/17 06:46:00;;;;;;;12.40;9.10;;;;;;;10.58;92.32;97371.31;105470;1280;22548;-71
2022/09/17 06:48:29;;;;;;;11.60;8.70;;;;;;;10.62;91.80;97367.67;105460;1280;22662;-71
2022/09/17 06:51:02;;;;;;;13.30;8.40;;;;;;;10.67;91.91;97364.19;105351;1280;139192;-72
2022/09/17 06:53:30;;;;;;;10.70;8.90;;;;;;;10.71;91.84;97361.02;105434;1280;22698;-72
2022/09/17 06:55:58;;;;;;;12.40;8.60;;;;;;;10.77;91.38;97364.23;105341;1280;139214;-71
2022/09/17 06:58:25;;;;;;;9.20;7.60;;;;;;;10.82;91.47;97372.02;105407;1280;24319;-73
2022/09/17 07:00:58;;;;;;;11.70;8.00;;;;;;;10.88;91.43;97375.78;105395;1280;25258;-72
2022/09/17 07:03:25;;;;;;;7.70;6.50;;;;;;;10.94;91.18;97379.96;105298;1280;138541;-71
2022/09/17 07:05:52;;;;;;;8.60;7.70;;;;;;;10.98;91.06;97377.66;105286;1280;25487;-71
2022/09/17 07:08:19;;;;;;;10.00;7.50;;;;;;;11.02;90.45;97370.36;105264;1280;138429;-71
2022/09/17 07:10:48;;;;;;;;;;;;;;;11.06;90.50;97364.64;105461;1280;25296;-72
2022/09/17 07:13:15;;;;;;;8.10;6.20;;;;;;;11.11;90.40;97371.17;105378;1280;22550;-72
2022/09/17 07:15:42;;;;;;;7.70;6.50;;;;;;;11.16;90.14;97375.68;105335;1280;138254;-73
2022/09/17 07:18:10;;;;;;;7.40;5.90;;;;;;;11.23;90.14;97367.23;105396;1280;22550;-72
2022/09/17 07:20:38;;;;;;;9.20;6.40;;;;;;;11.31;89.74;97359.90;105315;1280;138536;-72
2022/09/17 07:23:04;;;;;;;8.10;5.90;;;;;;;11.36;89.26;97361.09;105405;1279;22714;-72
2022/09/17 07:25:32;;;;;;;8.50;6.20;;;;;;;11.44;89.80;97365.80;105268;1280;138920;-72
2022/09/17 07:27:58;;;;;;;8.30;5.50;;;;;;;11.51;88.97;97370.14;105427;1280;24304;-72
2022/09/17 07:30:26;;;;;;;7.80;5.10;;;;;;;11.59;88.73;97367.45;105393;1280;25246;-72
2022/09/17 07:32:53;;;;;;;6.20;4.70;;;;;;;11.70;88.41;97369.52;105262;1280;138536;-73
2022/09/17 07:35:20;;;;;;;6.70;4.50;;;;;;;11.80;87.99;97380.23;105535;1280;22574;-73
2022/09/17 07:37:48;;;;;;;10.10;5.10;;;;;;;11.87;87.42;97382.00;105442;1279;139221;-72
2022/09/17 07:40:17;;;;;;;4.40;4.00;;;;;;;11.94;87.19;97382.05;105938;1280;22538;-73
2022/09/17 07:42:44;;;;;;;4.40;3.70;;;;;;;11.98;86.36;97388.30;106224;1280;22577;-72
2022/09/17 07:45:11;;;;;;;4.30;3.90;;;;;;;12.02;85.70;97399.04;106270;1278;138891;-73
2022/09/17 07:47:40;;;;;;;9.20;4.00;;;;;;;12.04;85.36;97414.09;105866;1280;25664;-72
2022/09/17 07:50:12;;;;;;;5.30;3.50;;;;;;;12.07;85.41;97420.58;105324;1280;138352;-73
2022/09/17 07:52:49;;;;;;;5.60;3.20;;;;;;;12.12;84.93;97421.04;105431;1280;22590;-73
2022/09/17 07:55:16;;;;;;;4.60;3.00;;;;;;;12.14;84.53;97416.05;105458;1280;24318;-73
2022/09/17 07:57:50;;;;;;;6.20;3.80;;;;;;;12.18;84.68;97419.98;105387;1280;138215;-72
2022/09/17 08:00:16;;;;;;;5.40;3.50;;;;;;;12.21;84.43;97415.48;105418;1280;24237;-73
2022/09/17 08:02:45;;;;;;;5.50;3.60;;;;;;;12.21;83.61;97415.05;105298;1280;138307;-73
2022/09/17 08:05:13;;;;;;;7.20;3.40;;;;;;;12.20;83.18;97415.54;105703;1280;24226;-72
2022/09/17 08:07:41;;;;;;;3.90;3.40;;;;;;;12.20;82.19;97412.05;105291;1280;138526;-72
2022/09/17 08:10:08;;;;;;;9.10;3.80;;;;;;;12.22;82.31;97406.52;105138;1281;24211;-71
2022/09/17 08:12:36;;;;;;;5.30;2.90;;;;;;;12.28;82.46;97401.20;105532;1279;25516;-71
2022/09/17 08:15:03;;;;;;;3.80;3.30;;;;;;;12.33;82.37;97404.11;105279;1280;138581;-71
2022/09/17 08:17:31;;;;;;;6.30;3.70;;;;;;;12.37;82.74;97404.96;105276;1280;24317;-72
2022/09/17 08:20:01;;;;;;;3.60;3.10;;;;;;;12.40;82.14;97395.65;105347;1280;138677;-71
2022/09/17 08:22:34;;;;;;;6.10;3.40;;;;;;;12.42;82.03;97391.33;105431;1280;24232;-72
2022/09/17 08:25:16;;;;;;;7.50;3.60;;;;;;;12.45;82.28;97399.89;105406;1278;25241;-72
2022/09/17 08:27:43;;;;;;;3.90;3.20;;;;;;;12.50;82.20;97399.41;105294;1280;138244;-72
2022/09/17 08:30:10;;;;;;;6.60;3.50;;;;;;;12.52;81.66;97396.44;105415;1280;23517;-74
2022/09/17 08:32:37;;;;;;;6.30;3.40;;;;;;;12.56;81.81;97400.80;105323;1280;138343;-72
2022/09/17 08:35:04;;;;;;;3.90;3.00;;;;;;;12.56;81.26;97397.34;105458;1280;23170;-72
2022/09/17 08:37:31;;;;;;;5.10;3.20;;;;;;;12.54;80.81;97395.67;105593;1280;138552;-72
2022/09/17 08:39:58;;;;;;;5.00;3.20;;;;;;;12.53;80.17;97395.73;106102;1280;22702;-72
2022/09/17 08:42:36;;;;;;;3.50;3.20;;;;;;;12.59;80.23;97403.66;107647;1270;22550;-73
2022/09/17 08:45:09;;;;;;;4.20;3.20;;;;;;;12.69;80.25;97403.75;105805;1280;138462;-74
2022/09/17 08:47:42;;;;;;;4.00;2.50;;;;;;;12.76;79.94;97399.67;106118;1280;24319;-73
2022/09/17 08:50:38;;;;;;;5.20;2.70;;;;;;;12.79;79.34;97401.66;105427;1280;138521;-74
2022/09/17 08:53:23;;;;;;;2.80;2.50;;;;;;;12.86;79.61;97405.75;105643;1280;22557;-74
2022/09/17 08:56:02;;;;;;;4.20;2.90;;;;;;;12.94;78.65;97407.76;105304;1280;138575;-73
2022/09/17 08:58:55;;;;;;;5.40;2.80;;;;;;;13.06;78.41;97403.90;105483;1280;22558;-72
2022/09/17 09:01:37;;;;;;;4.20;2.50;;;;;;;13.20;78.33;97391.40;105330;1280;138803;-72
2022/09/17 09:04:28;;;;;;;4.70;2.40;;;;;;;13.28;76.61;97380.29;106041;1279;23476;-73
2022/09/17 09:07:05;;;;;;;6.70;2.90;;;;;;;13.46;76.77;97373.66;105922;1280;23202;-72
2022/09/17 09:09:42;;;;;;;4.90;2.60;;;;;;;13.63;75.82;97371.84;105740;1280;138413;-73
2022/09/17 09:12:17;;;;;;;2.50;2.20;;;;;;;13.65;73.65;97372.58;105656;1280;25414;-72
2022/09/17 09:14:50;;;;;;;4.40;2.70;;;;;;;13.62;74.09;97369.06;106076;1280;138546;-73
2022/09/17 09:17:20;;;;;;;2.50;2.30;;;;;;;13.57;73.35;97364.86;106008;1280;22560;-71
2022/09/17 09:19:48;;;;;;;2.30;2.10;;;;;;;13.57;73.55;97367.14;105664;1280;138815;-73
2022/09/17 09:22:47;;;;;;;3.40;2.70;;;;;;;13.64;73.38;97371.60;106249;1280;23548;-72
2022/09/17 09:25:32;;;;;;;4.70;2.30;;;;;;;13.75;71.78;97361.19;105730;1280;24229;-72
2022/09/17 09:28:18;;;;;;;3.90;2.60;;;;;;;13.79;72.13;97357.90;106289;1280;25330;-73
2022/09/17 09:30:54;;;;;;;2.90;2.10;;;;;;;13.94;73.04;97363.45;105518;1280;22766;-73
2022/09/17 09:33:30;;;;;;;3.30;2.20;;;;;;;14.11;73.03;97368.98;105312;1280;139568;-72
2022/09/17 09:35:58;;;;;;;2.30;2.10;;;;;;;14.23;71.81;97376.86;105343;1281;22649;-73
2022/09/17 09:38:58;;;;;;;9.70;2.80;;;;;;;14.20;70.04;97382.65;105217;1281;139212;-73
2022/09/17 09:41:39;;;;;;;4.90;2.70;;;;;;;14.22;71.11;97389.42;105349;1281;23186;-72
2022/09/17 09:44:12;;;;;;;3.50;2.30;;;;;;;14.33;70.01;97392.39;105212;1280;138862;-72
2022/09/17 09:47:01;;;;;;;2.50;2.30;;;;;;;14.40;69.92;97393.60;105400;1280;22541;-73
2022/09/17 09:49:49;;;;;;;2.80;2.40;;;;;;;14.44;68.75;97393.83;105265;1280;138790;-72
2022/09/17 09:52:31;;;;;;;2.60;2.10;;;;;;;14.44;67.66;97393.27;105489;1280;22550;-71
2022/09/17 09:55:31;;;;;;;2.60;2.30;;;;;;;14.47;67.84;97390.48;105397;1280;24085;-73
2022/09/17 09:58:15;;;;;;;3.40;2.00;;;;;;;14.57;68.37;97383.23;105377;1280;24298;-73
2022/09/17 10:00:42;;;;;;;2.00;1.70;;;;;;;14.66;66.03;97385.09;105454;1280;24225;-73
2022/09/17 10:03:20;;;;;;;3.10;1.60;;;;;;;14.65;65.44;97386.09;105669;1280;139493;-73
2022/09/17 10:06:01;;;;;;;9.70;2.20;;;;;;;14.71;66.19;97388.77;105648;1280;24393;-72
2022/09/17 10:08:33;;;;;;;2.20;1.80;;;;;;;14.87;65.74;97392.57;105875;1279;138620;-73
2022/09/17 10:11:18;;;;;;;4.40;1.90;;;;;;;15.08;64.68;97394.88;106402;1280;30520;-73
2022/09/17 10:13:45;;;;;;;3.40;1.80;;;;;;;15.24;63.54;97392.45;105660;1280;139245;-72
2022/09/17 10:16:16;;;;;;;2.60;2.00;;;;;;;15.35;64.47;97394.05;105434;1280;22653;-70
2022/09/17 10:18:45;;;;;;;2.30;1.90;;;;;;;15.51;63.92;97394.91;105302;1280;22851;-72
2022/09/17 10:21:19;;;;;;;3.30;1.70;;;;;;;15.70;64.37;97392.41;105242;1280;137827;-72
2022/09/17 10:23:46;;;;;;;3.80;1.50;;;;;;;15.80;62.65;97397.03;105341;1280;25265;-71
2022/09/17 10:26:31;;;;;;;2.70;1.60;;;;;;;15.86;63.36;97389.48;105387;1278;138006;-71
2022/09/17 10:29:04;;;;;;;3.00;1.90;;;;;;;15.99;63.28;97387.30;105391;1280;22541;-72
2022/09/17 10:31:51;;;;;;;2.30;1.40;;;;;;;16.08;62.50;97388.36;105625;1280;138056;-72
2022/09/17 10:34:30;;;;;;;4.00;1.70;;;;;;;16.20;61.15;97395.17;105377;1280;24426;-71
2022/09/17 10:36:57;;;;;;;2.00;1.50;;;;;;;16.16;61.11;97401.50;105447;1280;25258;-70
2022/09/17 10:39:33;;;;;;;1.50;1.20;;;;;;;16.09;60.89;97397.31;105275;1280;138000;-72
2022/09/17 10:42:12;;;;;;;1.40;1.30;;;;;;;16.00;60.88;97398.23;105392;1280;30600;-71
2022/09/17 10:44:49;;;;;;;1.80;1.30;;;;;;;15.88;60.36;97397.69;105235;1280;138046;-71
2022/09/17 10:47:29;;;;;;;1.90;1.60;;;;;;;15.70;60.24;97396.75;105445;1280;25465;-71
2022/09/17 10:50:00;;;;;;;2.00;1.30;;;;;;;15.48;60.63;97397.77;105336;1280;138086;-72
2022/09/17 10:52:34;;;;;;;3.50;1.80;;;;;;;15.29;62.20;97400.04;105551;1280;23022;-72
2022/09/17 10:55:28;;;;;;;1.80;1.50;;;;;;;15.17;62.41;97403.77;106333;1280;25272;-70
2022/09/17 10:58:06;;;;;;;2.20;1.80;;;;;;;14.90;62.69;97393.52;106264;1280;24454;-69
2022/09/17 11:00:57;;;;;;;3.60;1.80;;;;;;;14.74;63.10;97391.92;105842;1280;22702;-70
2022/09/17 11:03:43;;;;;;;2.90;1.60;;;;;;;14.58;63.52;97392.48;106119;1280;138297;-71
2022/09/17 11:06:14;;;;;;;3.70;1.60;;;;;;;14.39;64.35;97396.90;106190;1280;25429;-69
2022/09/17 11:09:20;;;;;;;3.80;1.80;;;;;;;14.20;64.60;97395.74;105764;1280;138700;-71
2022/09/17 11:12:16;;;;;;;3.20;1.80;;;;;;;13.90;65.32;97404.24;105484;1287;24314;-70
2022/09/17 11:15:02;;;;;;;2.90;1.90;;;;;;;13.65;65.87;97406.39;104785;1291;138449;-72
2022/09/17 11:17:56;;;;;;;2.40;2.00;;;;;;;13.45;66.51;97414.81;104772;1292;22671;-72
2022/09/17 11:21:18;;;;;;;5.20;2.40;;;;;;;13.29;67.16;97420.04;104669;1292;138520;-71
2022/09/17 11:24:06;;;;;;;3.20;2.00;;;;;;;13.17;67.89;97423.86;103663;1301;24285;-71
2022/09/17 11:26:44;;;;;;;5.10;2.30;;;;;;;13.14;68.18;97424.32;103637;1300;139089;-73
2022/09/17 11:29:36;;;;;;;3.00;2.10;;;;;;;13.11;68.94;97421.95;103409;1300;22615;-72
2022/09/17 11:32:14;;;;;;;4.50;2.30;;;;;;;13.08;69.55;97425.35;103272;1300;139027;-71
2022/09/17 11:35:05;;;;;;;4.20;2.40;;;;;;;13.08;69.66;97430.33;103502;1300;23338;-72
2022/09/17 11:37:37;;;;;;;4.20;2.80;;;;;;;13.07;69.93;97421.16;103639;1299;138755;-72
2022/09/17 11:40:10;;;;;;;5.30;2.40;;;;;;;13.07;70.42;97417.65;103805;1300;22685;-72
2022/09/17 11:42:45;;;;;;;4.30;2.50;;;;;;;13.07;70.59;97414.61;103659;1301;22717;-70
2022/09/17 11:45:26;;;;;;;3.00;2.20;;;;;;;13.08;70.40;97416.73;103307;1300;139007;-72
2022/09/17 11:48:04;;;;;;;4.10;2.40;;;;;;;13.11;70.34;97423.24;103445;1298;22671;-70
2022/09/17 11:50:45;;;;;;;3.20;2.30;;;;;;;13.17;70.68;97426.21;103758;1294;139782;-72